Cleves, Iowa
Current Conditions -  °F | °C
As of 11:55 PM on Saturday 22 Nov 2014 (Local Time) from KIFA Reporting Station
Overcast Overcast  
Wind Chill: 51°   Ceiling: 1000
Heat Index: 51°   Visibility: 10mi
Dew Point: 48°   Wind: 14mph
Humidity: 90%   Direction: 190°S
Pressure: 29.63"   Gusts: NA
Location:  42.5577°N, 93.0852°W
Report Text: KIFA 230555Z AUTO 19012KT 10SM OVC010 11/09 A2963 RMK AO2 T01050090 10112 20092 401120007
Loading
Personal Weather Stations






























Interactive Weather Map New forecast layout! Learn more

10-Day Weather Forecast

Advertisements
Track Severe Weather on mobile